createdAt,value
2018-10-21T00:00:16.697Z,32.39
2018-10-21T00:01:16.703Z,32.29
2018-10-21T00:02:16.848Z,32.29
2018-10-21T00:03:16.845Z,32.59
2018-10-21T00:04:16.714Z,32.39
2018-10-21T00:05:16.716Z,32.39
2018-10-21T00:06:16.722Z,32.39
2018-10-21T00:07:16.726Z,32.39
2018-10-21T00:08:16.729Z,32.39
2018-10-21T00:09:16.850Z,32.49
2018-10-21T00:10:16.736Z,32.29
2018-10-21T00:11:16.739Z,32.39
2018-10-21T00:12:16.745Z,32.29
2018-10-21T00:13:16.750Z,32.49
2018-10-21T00:14:16.752Z,32.29
2018-10-21T00:15:16.841Z,32.49
2018-10-21T00:16:16.760Z,32.49
2018-10-21T00:17:16.764Z,32.49
2018-10-21T00:18:16.770Z,32.29
2018-10-21T00:19:16.776Z,32.39
2018-10-21T00:20:16.774Z,32.29
2018-10-21T00:21:16.878Z,32.29
2018-10-21T00:22:16.840Z,32.20
2018-10-21T00:23:16.787Z,32.29
2018-10-21T00:24:16.794Z,32.29
2018-10-21T00:25:16.849Z,32.29
2018-10-21T00:26:16.796Z,32.39
2018-10-21T00:27:16.948Z,32.39
2018-10-21T00:28:16.806Z,32.29
2018-10-21T00:29:16.809Z,32.29
2018-10-21T00:30:16.814Z,32.29
2018-10-21T00:31:16.853Z,32.39
2018-10-21T00:32:16.826Z,32.39
2018-10-21T00:33:16.873Z,32.39
2018-10-21T00:34:16.834Z,32.39
2018-10-21T00:35:16.831Z,32.29
2018-10-21T00:36:16.835Z,32.29
2018-10-21T00:37:16.840Z,32.39
2018-10-21T00:38:16.844Z,32.20
2018-10-21T00:39:16.937Z,32.29
2018-10-21T00:40:16.851Z,32.20
2018-10-21T00:41:16.863Z,32.29
2018-10-21T00:42:16.861Z,32.39
2018-10-21T00:43:16.864Z,32.29
2018-10-21T00:44:16.871Z,32.29
2018-10-21T00:45:17.072Z,32.20
2018-10-21T00:46:16.885Z,32.20
2018-10-21T00:47:16.880Z,32.29
2018-10-21T00:48:16.882Z,32.29
2018-10-21T00:49:16.886Z,32.29
2018-10-21T00:50:16.892Z,32.29
2018-10-21T00:51:16.978Z,32.20
2018-10-21T00:52:16.898Z,32.10
2018-10-21T00:53:16.902Z,32.20
2018-10-21T00:54:16.912Z,32.20
2018-10-21T00:55:16.910Z,32.29
2018-10-21T00:56:16.960Z,32.20
2018-10-21T00:57:17.024Z,32.10
2018-10-21T00:58:16.921Z,32.20
2018-10-21T00:59:16.925Z,32.20
2018-10-21T01:00:16.928Z,32.10
2018-10-21T01:01:16.935Z,32.29
2018-10-21T01:02:16.970Z,32.20
2018-10-21T01:03:17.056Z,32.10
2018-10-21T01:04:17.001Z,32.20
2018-10-21T01:05:16.948Z,32.20
2018-10-21T01:06:16.952Z,32.20
2018-10-21T01:07:16.957Z,32.20
2018-10-21T01:08:16.959Z,32.10
2018-10-21T01:09:17.040Z,32.10
2018-10-21T01:10:16.967Z,32.00
2018-10-21T01:11:16.973Z,32.20
2018-10-21T01:12:16.974Z,32.29
2018-10-21T01:13:16.979Z,32.20
2018-10-21T01:14:16.984Z,32.20
2018-10-21T01:15:17.130Z,32.00
2018-10-21T01:16:16.987Z,32.00
2018-10-21T01:17:16.994Z,31.91
2018-10-21T01:18:16.999Z,32.00
2018-10-21T01:19:17.004Z,31.91
2018-10-21T01:20:17.007Z,31.91
2018-10-21T01:21:17.124Z,32.00
2018-10-21T01:22:17.015Z,32.00
2018-10-21T01:23:17.019Z,31.91
2018-10-21T01:24:17.052Z,31.91
2018-10-21T01:25:17.026Z,31.91
2018-10-21T01:26:17.029Z,31.91
2018-10-21T01:27:17.191Z,31.91
2018-10-21T01:28:17.041Z,31.91
2018-10-21T01:29:17.043Z,31.91
2018-10-21T01:30:17.045Z,32.00
2018-10-21T01:31:17.048Z,31.91
2018-10-21T01:32:17.052Z,32.00
2018-10-21T01:33:17.171Z,31.91
2018-10-21T01:34:17.060Z,31.91
2018-10-21T01:35:17.065Z,31.91
2018-10-21T01:36:17.151Z,31.91
2018-10-21T01:37:17.140Z,31.91
2018-10-21T01:38:17.086Z,31.91
2018-10-21T01:39:17.187Z,31.91
2018-10-21T01:40:17.082Z,31.91
2018-10-21T01:41:17.087Z,31.81
2018-10-21T01:42:17.092Z,31.81
2018-10-21T01:43:17.097Z,32.00
2018-10-21T01:44:17.098Z,31.91
2018-10-21T01:45:17.217Z,32.10
2018-10-21T01:46:17.104Z,32.00
2018-10-21T01:47:17.116Z,32.00
2018-10-21T01:48:17.173Z,32.10
2018-10-21T01:49:17.117Z,32.10
2018-10-21T01:50:17.122Z,31.91
2018-10-21T01:51:17.266Z,32.10
2018-10-21T01:52:17.131Z,32.10
2018-10-21T01:53:17.134Z,32.00
2018-10-21T01:54:17.138Z,32.20
2018-10-21T01:55:17.141Z,32.29
2018-10-21T01:56:17.146Z,32.20
2018-10-21T01:57:17.299Z,32.29
2018-10-21T01:58:17.154Z,32.20
2018-10-21T01:59:17.157Z,32.00
2018-10-21T02:00:17.161Z,32.20
2018-10-21T02:01:17.166Z,32.00
2018-10-21T02:02:17.169Z,32.20
2018-10-21T02:03:17.201Z,32.20
2018-10-21T02:04:17.176Z,31.91
2018-10-21T02:05:17.179Z,31.91
2018-10-21T02:06:17.185Z,32.20
2018-10-21T02:07:17.187Z,32.00
2018-10-21T02:08:17.190Z,32.00
2018-10-21T02:09:17.269Z,32.20
2018-10-21T02:10:17.198Z,32.10
2018-10-21T02:11:17.205Z,32.20
2018-10-21T02:12:17.208Z,32.20
2018-10-21T02:13:17.210Z,32.00
2018-10-21T02:14:17.269Z,32.20
2018-10-21T02:15:17.219Z,32.10
2018-10-21T02:16:17.222Z,32.29
2018-10-21T02:17:17.291Z,32.29
2018-10-21T02:18:17.230Z,32.29
2018-10-21T02:19:17.236Z,32.29
2018-10-21T02:20:17.238Z,32.39
2018-10-21T02:21:17.331Z,32.29
2018-10-21T02:22:17.249Z,32.20
2018-10-21T02:23:17.250Z,32.29
2018-10-21T02:24:17.259Z,32.29
2018-10-21T02:25:17.259Z,32.39
2018-10-21T02:26:17.311Z,32.29
2018-10-21T02:27:17.306Z,32.10
2018-10-21T02:28:17.267Z,32.29
2018-10-21T02:29:17.273Z,32.39
2018-10-21T02:30:17.277Z,32.39
2018-10-21T02:31:17.285Z,32.29
2018-10-21T02:32:17.285Z,32.39
2018-10-21T02:33:17.414Z,32.39
2018-10-21T02:34:17.293Z,32.29
2018-10-21T02:35:17.299Z,32.29
2018-10-21T02:36:17.303Z,32.29
2018-10-21T02:37:17.304Z,32.39
2018-10-21T02:38:17.307Z,32.39
2018-10-21T02:39:17.379Z,32.10
2018-10-21T02:40:17.314Z,32.29
2018-10-21T02:41:17.319Z,32.29
2018-10-21T02:42:17.329Z,32.29
2018-10-21T02:43:17.331Z,32.29
2018-10-21T02:44:17.332Z,32.29
2018-10-21T02:45:17.399Z,32.29
2018-10-21T02:46:17.365Z,32.39
2018-10-21T02:47:17.343Z,32.29
2018-10-21T02:48:17.350Z,32.39
2018-10-21T02:49:17.351Z,32.29
2018-10-21T02:50:17.355Z,32.39
2018-10-21T02:51:17.394Z,32.39
2018-10-21T02:52:17.363Z,32.20
2018-10-21T02:53:17.363Z,32.29
2018-10-21T02:54:17.438Z,32.29
2018-10-21T02:55:17.373Z,32.29
2018-10-21T02:56:17.388Z,32.29
2018-10-21T02:57:17.487Z,32.39
2018-10-21T02:58:17.385Z,32.39
2018-10-21T02:59:17.389Z,32.20
2018-10-21T03:00:17.391Z,32.20
2018-10-21T03:01:17.395Z,32.20
2018-10-21T03:02:17.398Z,32.29
2018-10-21T03:03:17.579Z,32.10
2018-10-21T03:04:17.406Z,32.00
2018-10-21T03:05:17.411Z,32.10
2018-10-21T03:06:17.421Z,32.10
2018-10-21T03:07:17.420Z,32.10
2018-10-21T03:08:17.423Z,32.00
2018-10-21T03:09:17.692Z,32.10
2018-10-21T03:10:17.430Z,32.20
2018-10-21T03:11:17.454Z,32.20
2018-10-21T03:12:17.443Z,32.10
2018-10-21T03:13:17.441Z,32.20
2018-10-21T03:14:17.447Z,32.00
2018-10-21T03:15:17.576Z,32.10
2018-10-21T03:16:17.485Z,32.00
2018-10-21T03:17:17.457Z,32.10
2018-10-21T03:18:17.536Z,32.20
2018-10-21T03:19:17.483Z,32.10
2018-10-21T03:20:17.471Z,32.10
2018-10-21T03:21:17.551Z,32.20
2018-10-21T03:22:17.525Z,32.10
2018-10-21T03:23:17.481Z,32.20
2018-10-21T03:24:17.485Z,32.10
2018-10-21T03:25:17.493Z,32.10
2018-10-21T03:26:17.504Z,32.10
2018-10-21T03:27:17.603Z,32.10
2018-10-21T03:28:17.507Z,32.29
2018-10-21T03:29:17.509Z,32.20
2018-10-21T03:30:17.509Z,32.10
2018-10-21T03:31:17.511Z,32.29
2018-10-21T03:32:17.567Z,32.29
2018-10-21T03:33:17.798Z,32.20
2018-10-21T03:34:17.525Z,32.29
2018-10-21T03:35:17.552Z,32.10
2018-10-21T03:36:17.530Z,32.20
2018-10-21T03:37:17.536Z,32.20
2018-10-21T03:38:17.591Z,32.20
2018-10-21T03:39:17.543Z,32.00
2018-10-21T03:40:17.651Z,32.29
2018-10-21T03:41:17.550Z,32.20
2018-10-21T03:42:17.555Z,32.20
2018-10-21T03:43:17.557Z,32.20
2018-10-21T03:44:17.561Z,32.20
2018-10-21T03:45:17.568Z,32.20
2018-10-21T03:46:17.702Z,32.20
2018-10-21T03:47:17.573Z,32.20
2018-10-21T03:48:17.584Z,32.10
2018-10-21T03:49:17.579Z,31.81
2018-10-21T03:50:17.632Z,32.10
2018-10-21T03:51:17.593Z,32.00
2018-10-21T03:52:17.727Z,32.00
2018-10-21T03:53:17.598Z,31.71
2018-10-21T03:54:17.600Z,32.10
2018-10-21T03:55:17.605Z,31.91
2018-10-21T03:56:17.612Z,32.10
2018-10-21T03:57:17.611Z,32.10
2018-10-21T03:58:17.621Z,31.91
2018-10-21T03:59:17.620Z,31.91
2018-10-21T04:00:17.624Z,32.00
2018-10-21T04:01:17.627Z,32.10
2018-10-21T04:02:17.631Z,32.00
2018-10-21T04:03:17.635Z,32.10
2018-10-21T04:04:17.761Z,32.10
2018-10-21T04:05:17.642Z,31.91
2018-10-21T04:06:17.651Z,31.62
2018-10-21T04:07:17.655Z,31.91
2018-10-21T04:08:17.653Z,32.00
2018-10-21T04:09:17.658Z,31.62
2018-10-21T04:10:17.747Z,31.62
2018-10-21T04:11:17.665Z,31.71
2018-10-21T04:12:17.668Z,31.62
2018-10-21T04:13:17.674Z,31.91
2018-10-21T04:14:17.678Z,31.62
2018-10-21T04:15:17.682Z,31.62
2018-10-21T04:16:17.753Z,31.71
2018-10-21T04:17:17.691Z,31.81
2018-10-21T04:18:17.692Z,31.81
2018-10-21T04:19:17.698Z,31.62
2018-10-21T04:20:17.701Z,31.71
2018-10-21T04:21:17.716Z,31.71
2018-10-21T04:22:17.749Z,31.81
2018-10-21T04:23:17.715Z,31.71
2018-10-21T04:24:17.715Z,31.81
2018-10-21T04:25:17.719Z,31.81
2018-10-21T04:26:17.723Z,31.62
2018-10-21T04:27:17.730Z,31.71
2018-10-21T04:28:17.787Z,31.71
2018-10-21T04:29:17.737Z,31.71
2018-10-21T04:30:17.741Z,31.81
2018-10-21T04:31:17.745Z,31.81
2018-10-21T04:32:17.747Z,31.71
2018-10-21T04:33:17.751Z,31.71
2018-10-21T04:34:17.839Z,31.71
2018-10-21T04:35:17.767Z,31.71
2018-10-21T04:36:17.762Z,31.71
2018-10-21T04:37:17.766Z,31.81
2018-10-21T04:38:17.773Z,31.71
2018-10-21T04:39:17.789Z,31.71
2018-10-21T04:40:17.943Z,31.81
2018-10-21T04:41:17.780Z,31.71
2018-10-21T04:42:17.786Z,31.71
2018-10-21T04:43:17.793Z,31.62
2018-10-21T04:44:17.793Z,31.52
2018-10-21T04:45:17.806Z,31.42
2018-10-21T04:46:17.839Z,31.52
2018-10-21T04:47:17.807Z,31.62
2018-10-21T04:48:17.809Z,31.71
2018-10-21T04:49:17.813Z,31.42
2018-10-21T04:50:17.821Z,31.62
2018-10-21T04:51:17.824Z,31.52
2018-10-21T04:52:17.926Z,31.62
2018-10-21T04:53:17.835Z,31.42
2018-10-21T04:54:17.833Z,31.42
2018-10-21T04:55:17.836Z,31.42
2018-10-21T04:56:17.839Z,31.71
2018-10-21T04:57:17.843Z,31.62
2018-10-21T04:58:17.849Z,31.71
2018-10-21T04:59:17.851Z,31.71
2018-10-21T05:00:17.864Z,31.62
2018-10-21T05:01:17.858Z,31.71
2018-10-21T05:02:17.867Z,31.71
2018-10-21T05:03:17.869Z,31.62
2018-10-21T05:04:17.870Z,31.71
2018-10-21T05:05:17.894Z,31.62
2018-10-21T05:06:17.878Z,31.62
2018-10-21T05:07:17.904Z,31.62
2018-10-21T05:08:17.886Z,31.62
2018-10-21T05:09:17.896Z,31.62
2018-10-21T05:10:17.995Z,31.62
2018-10-21T05:11:17.970Z,31.71
2018-10-21T05:12:17.908Z,31.71
2018-10-21T05:13:17.906Z,31.81
2018-10-21T05:14:17.911Z,31.52
2018-10-21T05:15:18.003Z,31.62
2018-10-21T05:16:17.994Z,31.62
2018-10-21T05:17:17.920Z,31.71
2018-10-21T05:18:17.937Z,31.62
2018-10-21T05:19:17.972Z,31.62
2018-10-21T05:20:17.939Z,31.62
2018-10-21T05:21:17.950Z,31.62
2018-10-21T05:22:18.105Z,31.81
2018-10-21T05:23:17.946Z,31.71
2018-10-21T05:24:17.947Z,31.71
2018-10-21T05:25:17.952Z,31.71
2018-10-21T05:26:17.956Z,31.52
2018-10-21T05:27:17.961Z,31.62
2018-10-21T05:28:18.036Z,31.71
2018-10-21T05:29:17.968Z,31.52
2018-10-21T05:30:17.971Z,31.52
2018-10-21T05:31:17.984Z,31.71
2018-10-21T05:32:17.979Z,31.62
2018-10-21T05:33:17.983Z,31.42
2018-10-21T05:34:17.987Z,31.71
2018-10-21T05:35:17.991Z,31.42
2018-10-21T05:36:17.992Z,31.71
2018-10-21T05:37:18.000Z,31.62
2018-10-21T05:38:18.016Z,31.62
2018-10-21T05:39:18.033Z,31.52
2018-10-21T05:40:18.044Z,31.62
2018-10-21T05:41:18.019Z,31.71
2018-10-21T05:42:18.022Z,31.32
2018-10-21T05:43:18.025Z,31.62
2018-10-21T05:44:18.025Z,31.62
2018-10-21T05:45:18.030Z,31.32
2018-10-21T05:46:18.033Z,31.62
2018-10-21T05:47:18.103Z,31.52
2018-10-21T05:48:18.040Z,31.34
2018-10-21T05:49:18.045Z,31.32
2018-10-21T05:50:18.049Z,31.42
2018-10-21T05:51:18.054Z,31.53
2018-10-21T05:52:18.063Z,31.34
2018-10-21T05:53:18.060Z,31.52
2018-10-21T05:54:18.065Z,31.62
2018-10-21T05:55:18.067Z,31.32
2018-10-21T05:56:18.076Z,31.62
2018-10-21T05:57:18.079Z,31.62
2018-10-21T05:58:18.140Z,31.62
2018-10-21T05:59:18.083Z,31.62
2018-10-21T06:00:18.088Z,31.62
2018-10-21T06:01:18.090Z,31.71
2018-10-21T06:02:18.095Z,31.32
2018-10-21T06:03:18.101Z,31.62
2018-10-21T06:04:18.261Z,31.32
2018-10-21T06:05:18.112Z,31.62
2018-10-21T06:06:18.114Z,31.32
2018-10-21T06:07:18.152Z,31.62
2018-10-21T06:08:18.118Z,31.52
2018-10-21T06:09:18.123Z,31.42
2018-10-21T06:10:18.315Z,31.42
2018-10-21T06:11:18.134Z,31.42
2018-10-21T06:12:18.133Z,31.42
2018-10-21T06:13:18.138Z,31.52
2018-10-21T06:14:18.141Z,31.42
2018-10-21T06:15:18.147Z,31.42
2018-10-21T06:16:18.227Z,31.52
2018-10-21T06:17:18.153Z,31.42
2018-10-21T06:18:18.158Z,31.42
2018-10-21T06:19:18.177Z,31.42
2018-10-21T06:20:18.166Z,31.42
2018-10-21T06:21:18.167Z,31.42
2018-10-21T06:22:18.260Z,31.42
2018-10-21T06:23:18.177Z,31.42
2018-10-21T06:24:18.180Z,31.42
2018-10-21T06:25:18.185Z,31.42
2018-10-21T06:26:18.212Z,31.42
2018-10-21T06:27:18.194Z,31.42
2018-10-21T06:28:18.197Z,31.42
2018-10-21T06:29:18.248Z,31.52
2018-10-21T06:30:18.204Z,31.52
2018-10-21T06:31:18.211Z,31.53
2018-10-21T06:32:18.213Z,31.52
2018-10-21T06:33:18.264Z,31.52
2018-10-21T06:34:18.219Z,31.52
2018-10-21T06:35:18.224Z,31.52
2018-10-21T06:36:18.228Z,31.52
2018-10-21T06:37:18.232Z,31.32
2018-10-21T06:38:18.243Z,31.52
2018-10-21T06:39:18.255Z,31.52
2018-10-21T06:40:18.243Z,31.52
2018-10-21T06:41:18.248Z,31.42
2018-10-21T06:42:18.251Z,31.52
2018-10-21T06:43:18.255Z,31.52
2018-10-21T06:44:18.259Z,31.42
2018-10-21T06:45:18.412Z,31.52
2018-10-21T06:46:18.265Z,31.32
2018-10-21T06:47:18.270Z,31.44
2018-10-21T06:48:18.297Z,31.32
2018-10-21T06:49:18.278Z,31.42
2018-10-21T06:50:18.285Z,31.32
2018-10-21T06:51:18.289Z,31.52
2018-10-21T06:52:18.294Z,31.32
2018-10-21T06:53:18.309Z,31.42
2018-10-21T06:54:18.298Z,31.52
2018-10-21T06:55:18.303Z,31.32
2018-10-21T06:56:18.320Z,31.32
2018-10-21T06:57:18.483Z,31.52
2018-10-21T06:58:18.312Z,31.52
2018-10-21T06:59:18.376Z,31.52
2018-10-21T07:00:18.325Z,31.52
2018-10-21T07:01:18.322Z,31.32
2018-10-21T07:02:18.329Z,31.42
2018-10-21T07:03:18.333Z,31.42
2018-10-21T07:04:18.387Z,31.42
2018-10-21T07:05:18.414Z,31.42
2018-10-21T07:06:18.344Z,31.52
2018-10-21T07:07:18.349Z,31.52
2018-10-21T07:08:18.412Z,31.42
2018-10-21T07:09:18.355Z,31.32
2018-10-21T07:10:18.361Z,31.44
2018-10-21T07:11:18.365Z,31.23
2018-10-21T07:12:18.370Z,31.42
2018-10-21T07:13:18.373Z,31.32
2018-10-21T07:14:18.376Z,31.42
2018-10-21T07:15:18.411Z,31.23
2018-10-21T07:16:18.445Z,31.42
2018-10-21T07:17:18.386Z,31.32
2018-10-21T07:18:18.392Z,31.23
2018-10-21T07:19:18.396Z,31.23
2018-10-21T07:20:18.399Z,31.23
2018-10-21T07:21:18.457Z,31.32
2018-10-21T07:22:18.465Z,31.13
2018-10-21T07:23:18.415Z,31.42
2018-10-21T07:24:18.413Z,31.32
2018-10-21T07:25:18.419Z,31.32
2018-10-21T07:26:18.423Z,31.23
2018-10-21T07:27:18.427Z,31.32
2018-10-21T07:28:18.638Z,31.32
2018-10-21T07:29:18.433Z,31.13
2018-10-21T07:30:18.437Z,31.32
2018-10-21T07:31:18.528Z,31.32
2018-10-21T07:32:18.449Z,31.23
2018-10-21T07:33:18.452Z,31.52
2018-10-21T07:34:18.592Z,31.13
2018-10-21T07:35:18.459Z,31.23
2018-10-21T07:36:18.523Z,31.24
2018-10-21T07:37:18.561Z,31.32
2018-10-21T07:38:18.469Z,31.04
2018-10-21T07:39:18.473Z,31.13
2018-10-21T07:40:18.600Z,31.04
2018-10-21T07:41:18.481Z,31.32
2018-10-21T07:42:18.491Z,31.23
2018-10-21T07:43:18.495Z,31.32
2018-10-21T07:44:18.492Z,31.23
2018-10-21T07:45:18.496Z,31.42
2018-10-21T07:46:18.617Z,31.23
2018-10-21T07:47:18.505Z,31.42
2018-10-21T07:48:18.524Z,31.13
2018-10-21T07:49:18.611Z,31.23
2018-10-21T07:50:18.516Z,31.23
2018-10-21T07:51:18.523Z,31.23
2018-10-21T07:52:18.536Z,31.24
2018-10-21T07:53:18.527Z,31.23
2018-10-21T07:54:18.532Z,31.34
2018-10-21T07:55:18.671Z,31.23
2018-10-21T07:56:18.541Z,31.13
2018-10-21T07:57:18.543Z,31.13
2018-10-21T07:58:18.547Z,31.13
2018-10-21T07:59:18.550Z,31.32
2018-10-21T08:00:18.553Z,31.23
2018-10-21T08:01:18.600Z,31.13
2018-10-21T08:02:18.621Z,31.23
2018-10-21T08:03:18.569Z,31.24
2018-10-21T08:04:18.570Z,31.23
2018-10-21T08:05:18.573Z,31.23
2018-10-21T08:06:18.593Z,31.23
2018-10-21T08:07:18.584Z,31.13
2018-10-21T08:08:18.585Z,31.23
2018-10-21T08:09:18.590Z,31.23
2018-10-21T08:10:18.594Z,31.23
2018-10-21T08:11:18.599Z,31.23
2018-10-21T08:12:18.601Z,31.23
2018-10-21T08:13:18.605Z,31.23
2018-10-21T08:14:18.688Z,31.32
2018-10-21T08:15:18.733Z,31.32
2018-10-21T08:16:18.740Z,31.23
2018-10-21T08:17:18.620Z,31.32
2018-10-21T08:18:18.633Z,31.32
2018-10-21T08:19:18.631Z,31.32
2018-10-21T08:20:18.631Z,31.34
2018-10-21T08:21:18.770Z,31.24
2018-10-21T08:22:18.648Z,31.42
2018-10-21T08:23:18.644Z,31.23
2018-10-21T08:24:18.748Z,30.84
2018-10-21T08:25:18.652Z,31.42
2018-10-21T08:26:18.653Z,31.42
2018-10-21T08:27:18.748Z,31.42
2018-10-21T08:28:18.844Z,31.42
2018-10-21T08:29:18.666Z,31.23
2018-10-21T08:30:18.670Z,30.94
2018-10-21T08:31:18.676Z,31.32
2018-10-21T08:32:18.677Z,31.42
2018-10-21T08:33:18.683Z,31.32
2018-10-21T08:34:18.835Z,31.23
2018-10-21T08:35:18.696Z,31.42
2018-10-21T08:36:18.701Z,30.84
2018-10-21T08:37:18.697Z,31.32
2018-10-21T08:38:18.704Z,31.24
2018-10-21T08:39:18.707Z,31.13
2018-10-21T08:40:18.713Z,31.32
2018-10-21T08:41:18.713Z,31.23
2018-10-21T08:42:18.815Z,31.23
2018-10-21T08:43:18.776Z,31.23
2018-10-21T08:44:18.725Z,31.32
2018-10-21T08:45:18.729Z,31.23
2018-10-21T08:46:18.863Z,31.23
2018-10-21T08:47:18.737Z,31.23
2018-10-21T08:48:18.741Z,31.23
2018-10-21T08:49:18.847Z,31.04
2018-10-21T08:50:18.748Z,31.23
2018-10-21T08:51:18.761Z,31.32
2018-10-21T08:52:18.922Z,31.23
2018-10-21T08:53:18.758Z,31.32
2018-10-21T08:54:18.763Z,31.23
2018-10-21T08:55:18.841Z,31.23
2018-10-21T08:56:18.770Z,31.23
2018-10-21T08:57:18.777Z,31.23
2018-10-21T08:58:18.861Z,31.13
2018-10-21T08:59:18.784Z,31.23
2018-10-21T09:00:18.785Z,31.13
2018-10-21T09:01:18.977Z,31.24
2018-10-21T09:02:18.795Z,31.24
2018-10-21T09:03:18.797Z,31.23
2018-10-21T09:04:18.889Z,31.34
2018-10-21T09:05:18.805Z,31.23
2018-10-21T09:06:18.812Z,31.23
2018-10-21T09:07:18.959Z,31.32
2018-10-21T09:08:18.819Z,31.32
2018-10-21T09:09:18.822Z,31.23
2018-10-21T09:10:18.991Z,31.23
2018-10-21T09:11:18.830Z,31.23
2018-10-21T09:12:18.837Z,31.24
2018-10-21T09:13:18.840Z,31.34
2018-10-21T09:14:18.841Z,31.32
2018-10-21T09:15:19.034Z,31.23
2018-10-21T09:16:18.966Z,31.32
2018-10-21T09:17:18.853Z,31.13
2018-10-21T09:18:18.856Z,31.23
2018-10-21T09:19:19.027Z,31.04
2018-10-21T09:20:18.864Z,31.13
2018-10-21T09:21:18.865Z,31.32
2018-10-21T09:22:18.925Z,31.23
2018-10-21T09:23:18.874Z,31.23
2018-10-21T09:24:18.879Z,31.05
2018-10-21T09:25:19.040Z,31.04
2018-10-21T09:26:18.892Z,31.13
2018-10-21T09:27:18.890Z,31.13
2018-10-21T09:28:18.894Z,31.05
2018-10-21T09:29:18.899Z,31.13
2018-10-21T09:30:18.905Z,31.23
2018-10-21T09:31:18.945Z,31.04
2018-10-21T09:32:18.911Z,31.13
2018-10-21T09:33:18.950Z,31.13
2018-10-21T09:34:19.001Z,31.32
2018-10-21T09:35:18.926Z,31.13
2018-10-21T09:36:18.928Z,31.04
2018-10-21T09:37:18.929Z,31.04
2018-10-21T09:38:18.942Z,31.15
2018-10-21T09:39:18.941Z,31.04
2018-10-21T09:40:19.063Z,31.04
2018-10-21T09:41:18.949Z,31.23
2018-10-21T09:42:19.093Z,31.15
2018-10-21T09:43:18.954Z,31.04
2018-10-21T09:44:18.960Z,31.04
2018-10-21T09:45:18.961Z,31.13
2018-10-21T09:46:19.097Z,31.23
2018-10-21T09:47:19.015Z,31.13
2018-10-21T09:48:18.974Z,31.13
2018-10-21T09:49:19.077Z,31.23
2018-10-21T09:50:18.985Z,31.23
2018-10-21T09:51:18.984Z,31.13
2018-10-21T09:52:19.016Z,31.04
2018-10-21T09:53:18.993Z,31.04
2018-10-21T09:54:18.997Z,31.04
2018-10-21T09:55:19.002Z,31.04
2018-10-21T09:56:19.004Z,31.13
2018-10-21T09:57:19.010Z,31.05
2018-10-21T09:58:19.158Z,31.04
2018-10-21T09:59:19.020Z,31.04
2018-10-21T10:00:19.020Z,31.04
2018-10-21T10:01:19.023Z,31.23
2018-10-21T10:02:19.027Z,31.04
2018-10-21T10:03:19.032Z,31.04
2018-10-21T10:04:19.140Z,31.04
2018-10-21T10:05:19.153Z,31.23
2018-10-21T10:06:19.078Z,31.04
2018-10-21T10:07:19.226Z,31.05
2018-10-21T10:08:19.050Z,31.04
2018-10-21T10:09:19.091Z,31.13
2018-10-21T10:10:19.058Z,31.04
2018-10-21T10:11:19.062Z,31.23
2018-10-21T10:12:19.065Z,31.13
2018-10-21T10:13:19.119Z,31.15
2018-10-21T10:14:19.078Z,31.23
2018-10-21T10:15:19.078Z,31.23
2018-10-21T10:16:19.091Z,31.23
2018-10-21T10:17:19.084Z,31.04
2018-10-21T10:18:19.090Z,31.13
2018-10-21T10:19:19.194Z,31.04
2018-10-21T10:20:19.097Z,31.23
2018-10-21T10:21:19.175Z,31.04
2018-10-21T10:22:19.104Z,31.04
2018-10-21T10:23:19.166Z,31.05
2018-10-21T10:24:19.141Z,31.13
2018-10-21T10:25:19.229Z,31.13
2018-10-21T10:26:19.117Z,31.13
2018-10-21T10:27:19.124Z,31.04
2018-10-21T10:28:19.303Z,31.04
2018-10-21T10:29:19.179Z,31.13
2018-10-21T10:30:19.190Z,31.05
2018-10-21T10:31:19.345Z,31.23
2018-10-21T10:32:19.145Z,31.13
2018-10-21T10:33:19.147Z,31.13
2018-10-21T10:34:19.245Z,31.04
2018-10-21T10:35:19.155Z,31.15
2018-10-21T10:36:19.215Z,31.13
2018-10-21T10:37:19.193Z,31.04
2018-10-21T10:38:19.165Z,31.04
2018-10-21T10:39:19.170Z,31.05
2018-10-21T10:40:19.312Z,30.94
2018-10-21T10:41:19.178Z,31.13
2018-10-21T10:42:19.345Z,31.04
2018-10-21T10:43:19.185Z,31.04
2018-10-21T10:44:19.190Z,31.05
2018-10-21T10:45:19.192Z,31.04
2018-10-21T10:46:19.363Z,31.04
2018-10-21T10:47:19.230Z,31.13
2018-10-21T10:48:19.204Z,31.13
2018-10-21T10:49:19.214Z,31.04
2018-10-21T10:50:19.295Z,31.05
2018-10-21T10:51:19.217Z,31.04
2018-10-21T10:52:19.219Z,31.04
2018-10-21T10:53:19.223Z,31.15
2018-10-21T10:54:19.228Z,31.13
2018-10-21T10:55:19.342Z,31.05
2018-10-21T10:56:19.258Z,31.04
2018-10-21T10:57:19.239Z,31.04
2018-10-21T10:58:19.247Z,31.13
2018-10-21T10:59:19.247Z,31.04
2018-10-21T11:00:19.251Z,31.04
2018-10-21T11:01:19.255Z,31.13
2018-10-21T11:02:19.259Z,31.13
2018-10-21T11:03:19.265Z,31.04
2018-10-21T11:04:19.354Z,31.13
2018-10-21T11:05:19.270Z,31.04
2018-10-21T11:06:19.367Z,31.13
2018-10-21T11:07:19.281Z,31.04
2018-10-21T11:08:19.299Z,31.04
2018-10-21T11:09:19.292Z,31.04
2018-10-21T11:10:19.291Z,31.04
2018-10-21T11:11:19.295Z,31.15
2018-10-21T11:12:19.297Z,31.04
2018-10-21T11:13:19.307Z,30.94
2018-10-21T11:14:19.305Z,31.13
2018-10-21T11:15:19.310Z,31.15
2018-10-21T11:16:19.456Z,31.04
2018-10-21T11:17:19.328Z,31.04
2018-10-21T11:18:19.327Z,31.04
2018-10-21T11:19:19.356Z,31.05
2018-10-21T11:20:19.329Z,31.04
2018-10-21T11:21:19.330Z,31.04
2018-10-21T11:22:19.380Z,31.13
2018-10-21T11:23:19.340Z,31.15
2018-10-21T11:24:19.347Z,31.04
2018-10-21T11:25:19.493Z,31.04
2018-10-21T11:26:19.351Z,31.15
2018-10-21T11:27:19.356Z,31.13
2018-10-21T11:28:19.398Z,31.04
2018-10-21T11:29:19.363Z,31.04
2018-10-21T11:30:19.368Z,31.13
2018-10-21T11:31:19.380Z,31.13
2018-10-21T11:32:19.380Z,31.04
2018-10-21T11:33:19.380Z,31.23
2018-10-21T11:34:19.383Z,31.04
2018-10-21T11:35:19.387Z,31.04
2018-10-21T11:36:19.395Z,31.05
2018-10-21T11:37:19.547Z,31.13
2018-10-21T11:38:19.398Z,31.13
2018-10-21T11:39:19.402Z,31.13
2018-10-21T11:40:19.500Z,31.13
2018-10-21T11:41:19.411Z,31.04
2018-10-21T11:42:19.413Z,30.95
2018-10-21T11:43:19.421Z,31.23
2018-10-21T11:44:19.421Z,31.04
2018-10-21T11:45:19.424Z,31.23
2018-10-21T11:46:19.464Z,31.13
2018-10-21T11:47:19.434Z,30.94
2018-10-21T11:48:19.437Z,31.24
2018-10-21T11:49:19.499Z,31.24
2018-10-21T11:50:19.446Z,31.15
2018-10-21T11:51:19.454Z,31.24
2018-10-21T11:52:19.567Z,31.24
2018-10-21T11:53:19.456Z,31.04
2018-10-21T11:54:19.457Z,30.85
2018-10-21T11:55:19.618Z,30.85
2018-10-21T11:56:19.471Z,30.85
2018-10-21T11:57:19.474Z,30.85
2018-10-21T11:58:19.531Z,30.84
2018-10-21T11:59:19.480Z,30.84
2018-10-21T12:00:19.483Z,31.15
2018-10-21T12:01:19.506Z,30.74
2018-10-21T12:02:19.492Z,31.04
2018-10-21T12:03:19.495Z,30.74
2018-10-21T12:04:19.498Z,31.13
2018-10-21T12:05:19.519Z,31.15
2018-10-21T12:06:19.506Z,31.05
2018-10-21T12:07:19.598Z,30.66
2018-10-21T12:08:19.516Z,30.66
2018-10-21T12:09:19.519Z,30.85
2018-10-21T12:10:19.523Z,30.76
2018-10-21T12:11:19.527Z,30.85
2018-10-21T12:12:19.544Z,30.84
2018-10-21T12:13:19.536Z,30.66
2018-10-21T12:14:19.537Z,30.66
2018-10-21T12:15:19.570Z,30.76
2018-10-21T12:16:19.665Z,30.66
2018-10-21T12:17:19.548Z,30.57
2018-10-21T12:18:19.590Z,30.57
2018-10-21T12:19:19.556Z,30.65
2018-10-21T12:20:19.561Z,30.57
2018-10-21T12:21:19.563Z,30.66
2018-10-21T12:22:19.705Z,30.57
2018-10-21T12:23:19.639Z,30.74
2018-10-21T12:24:19.577Z,30.57
2018-10-21T12:25:19.726Z,30.55
2018-10-21T12:26:19.588Z,30.65
2018-10-21T12:27:19.624Z,30.65
2018-10-21T12:28:19.673Z,30.57
2018-10-21T12:29:19.664Z,30.94
2018-10-21T12:30:19.604Z,30.55
2018-10-21T12:31:19.773Z,30.74
2018-10-21T12:32:19.611Z,30.55
2018-10-21T12:33:19.611Z,30.66
2018-10-21T12:34:19.616Z,30.94
2018-10-21T12:35:19.690Z,30.57
2018-10-21T12:36:19.623Z,30.65
2018-10-21T12:37:19.627Z,30.65
2018-10-21T12:38:19.630Z,30.95
2018-10-21T12:39:19.634Z,30.55
2018-10-21T12:40:19.830Z,30.55
2018-10-21T12:41:19.641Z,30.65
2018-10-21T12:42:19.646Z,30.66
2018-10-21T12:43:19.713Z,30.65
2018-10-21T12:44:19.653Z,30.57
2018-10-21T12:45:19.723Z,30.66
2018-10-21T12:46:19.662Z,30.76
2018-10-21T12:47:19.666Z,30.76
2018-10-21T12:48:19.670Z,30.85
2018-10-21T12:49:19.840Z,30.76
2018-10-21T12:50:19.676Z,30.74
2018-10-21T12:51:19.686Z,30.76
2018-10-21T12:52:19.687Z,30.76